sensor_id;sensor_type;location;lat;lon;timestamp;temperature;humidity
37408;DHT22;24866;50.248;8.252;2023-02-28T00:00:02;0.50;99.90
37408;DHT22;24866;50.248;8.252;2023-02-28T00:02:39;0.50;99.90
37408;DHT22;24866;50.248;8.252;2023-02-28T00:05:11;0.50;99.90
37408;DHT22;24866;50.248;8.252;2023-02-28T00:07:42;0.40;99.90
37408;DHT22;24866;50.248;8.252;2023-02-28T00:10:14;0.50;99.90
37408;DHT22;24866;50.248;8.252;2023-02-28T00:12:46;0.50;99.90
37408;DHT22;24866;50.248;8.252;2023-02-28T00:15:20;0.50;99.90
37408;DHT22;24866;50.248;8.252;2023-02-28T00:17:51;0.60;99.90
37408;DHT22;24866;50.248;8.252;2023-02-28T00:20:21;0.50;99.90
37408;DHT22;24866;50.248;8.252;2023-02-28T00:22:53;0.50;99.90
37408;DHT22;24866;50.248;8.252;2023-02-28T00:25:24;0.40;99.90
37408;DHT22;24866;50.248;8.252;2023-02-28T00:27:54;0.40;99.90
37408;DHT22;24866;50.248;8.252;2023-02-28T00:30:26;0.40;99.90
37408;DHT22;24866;50.248;8.252;2023-02-28T00:32:56;0.40;99.90
37408;DHT22;24866;50.248;8.252;2023-02-28T00:35:28;0.30;99.90
37408;DHT22;24866;50.248;8.252;2023-02-28T00:37:58;0.30;99.90
37408;DHT22;24866;50.248;8.252;2023-02-28T00:40:28;0.40;99.90
37408;DHT22;24866;50.248;8.252;2023-02-28T00:42:58;0.30;99.90
37408;DHT22;24866;50.248;8.252;2023-02-28T00:45:30;0.20;99.90
37408;DHT22;24866;50.248;8.252;2023-02-28T00:48:01;0.30;99.90
37408;DHT22;24866;50.248;8.252;2023-02-28T00:50:31;0.30;99.90
37408;DHT22;24866;50.248;8.252;2023-02-28T00:53:01;0.20;99.90
37408;DHT22;24866;50.248;8.252;2023-02-28T00:55:31;0.20;99.90
37408;DHT22;24866;50.248;8.252;2023-02-28T00:58:02;0.10;99.90
37408;DHT22;24866;50.248;8.252;2023-02-28T01:00:37;0.20;99.90
37408;DHT22;24866;50.248;8.252;2023-02-28T01:03:08;0.30;99.90
37408;DHT22;24866;50.248;8.252;2023-02-28T01:05:38;0.20;99.90
37408;DHT22;24866;50.248;8.252;2023-02-28T01:08:15;0.10;99.90
37408;DHT22;24866;50.248;8.252;2023-02-28T01:10:45;0.20;99.90
37408;DHT22;24866;50.248;8.252;2023-02-28T01:13:15;0.20;99.90
37408;DHT22;24866;50.248;8.252;2023-02-28T01:15:53;0.30;99.90
37408;DHT22;24866;50.248;8.252;2023-02-28T01:18:24;0.20;99.90
37408;DHT22;24866;50.248;8.252;2023-02-28T01:20:54;0.10;99.90
37408;DHT22;24866;50.248;8.252;2023-02-28T01:23:25;0.00;1.00
37408;DHT22;24866;50.248;8.252;2023-02-28T01:25:55;0.00;1.00
37408;DHT22;24866;50.248;8.252;2023-02-28T01:28:26;0.10;1.00
37408;DHT22;24866;50.248;8.252;2023-02-28T01:31:00;-0.10;1.00
37408;DHT22;24866;50.248;8.252;2023-02-28T01:33:30;0.00;1.00
37408;DHT22;24866;50.248;8.252;2023-02-28T01:36:05;0.00;1.00
37408;DHT22;24866;50.248;8.252;2023-02-28T01:38:36;-0.10;1.00
37408;DHT22;24866;50.248;8.252;2023-02-28T01:41:07;0.00;1.00
37408;DHT22;24866;50.248;8.252;2023-02-28T01:43:57;0.10;1.00
37408;DHT22;24866;50.248;8.252;2023-02-28T01:46:29;0.00;1.00
37408;DHT22;24866;50.248;8.252;2023-02-28T01:49:04;-0.20;1.00
37408;DHT22;24866;50.248;8.252;2023-02-28T01:51:38;-0.30;1.00
37408;DHT22;24866;50.248;8.252;2023-02-28T01:54:16;-0.30;1.00
37408;DHT22;24866;50.248;8.252;2023-02-28T01:56:52;-0.40;1.00
37408;DHT22;24866;50.248;8.252;2023-02-28T01:59:27;-0.40;1.00
37408;DHT22;24866;50.248;8.252;2023-02-28T02:02:00;-0.40;1.00
37408;DHT22;24866;50.248;8.252;2023-02-28T02:04:34;-0.40;1.00
37408;DHT22;24866;50.248;8.252;2023-02-28T02:07:07;-0.40;1.00
37408;DHT22;24866;50.248;8.252;2023-02-28T02:09:37;-0.20;1.00
37408;DHT22;24866;50.248;8.252;2023-02-28T02:12:17;-0.40;1.00
37408;DHT22;24866;50.248;8.252;2023-02-28T02:14:59;-0.50;1.00
37408;DHT22;24866;50.248;8.252;2023-02-28T02:17:35;-0.50;1.00
37408;DHT22;24866;50.248;8.252;2023-02-28T02:20:32;-0.50;1.00
37408;DHT22;24866;50.248;8.252;2023-02-28T02:23:36;-0.40;1.00
37408;DHT22;24866;50.248;8.252;2023-02-28T02:29:46;-0.40;1.00
37408;DHT22;24866;50.248;8.252;2023-02-28T02:32:49;-0.50;1.00
37408;DHT22;24866;50.248;8.252;2023-02-28T02:35:28;-0.60;1.00
37408;DHT22;24866;50.248;8.252;2023-02-28T02:38:05;-0.60;1.00
37408;DHT22;24866;50.248;8.252;2023-02-28T02:40:42;-0.70;1.00
37408;DHT22;24866;50.248;8.252;2023-02-28T02:43:16;-0.80;1.00
37408;DHT22;24866;50.248;8.252;2023-02-28T02:45:52;-0.80;1.00
37408;DHT22;24866;50.248;8.252;2023-02-28T02:48:26;-0.70;1.00
37408;DHT22;24866;50.248;8.252;2023-02-28T02:51:01;-0.80;1.00
37408;DHT22;24866;50.248;8.252;2023-02-28T02:53:38;-0.80;1.00
37408;DHT22;24866;50.248;8.252;2023-02-28T02:56:10;-0.80;1.00
37408;DHT22;24866;50.248;8.252;2023-02-28T02:58:42;-0.80;1.00
37408;DHT22;24866;50.248;8.252;2023-02-28T03:01:17;-0.90;1.00
37408;DHT22;24866;50.248;8.252;2023-02-28T03:03:58;-0.80;1.00
37408;DHT22;24866;50.248;8.252;2023-02-28T03:06:30;-0.80;1.00
37408;DHT22;24866;50.248;8.252;2023-02-28T03:09:00;-0.90;1.00
37408;DHT22;24866;50.248;8.252;2023-02-28T03:11:30;-1.00;1.00
37408;DHT22;24866;50.248;8.252;2023-02-28T03:14:30;-0.90;1.00
37408;DHT22;24866;50.248;8.252;2023-02-28T03:17:42;-0.90;1.00
37408;DHT22;24866;50.248;8.252;2023-02-28T03:20:18;-1.00;1.00
37408;DHT22;24866;50.248;8.252;2023-02-28T03:23:01;-1.10;1.00
37408;DHT22;24866;50.248;8.252;2023-02-28T03:25:40;-1.00;1.00
37408;DHT22;24866;50.248;8.252;2023-02-28T03:28:17;-0.90;1.00
37408;DHT22;24866;50.248;8.252;2023-02-28T03:30:52;-1.00;1.00
37408;DHT22;24866;50.248;8.252;2023-02-28T03:33:26;-1.10;1.00
37408;DHT22;24866;50.248;8.252;2023-02-28T03:36:01;-1.10;1.00
37408;DHT22;24866;50.248;8.252;2023-02-28T03:38:37;-1.20;1.00
37408;DHT22;24866;50.248;8.252;2023-02-28T03:41:13;-1.20;1.00
37408;DHT22;24866;50.248;8.252;2023-02-28T03:43:54;-1.20;1.00
37408;DHT22;24866;50.248;8.252;2023-02-28T03:46:28;-1.20;1.00
37408;DHT22;24866;50.248;8.252;2023-02-28T03:49:03;-1.20;1.00
37408;DHT22;24866;50.248;8.252;2023-02-28T03:51:41;-1.10;1.00
37408;DHT22;24866;50.248;8.252;2023-02-28T03:54:18;-1.00;1.00
37408;DHT22;24866;50.248;8.252;2023-02-28T03:56:51;-1.10;1.00
37408;DHT22;24866;50.248;8.252;2023-02-28T03:59:27;-1.10;1.00
37408;DHT22;24866;50.248;8.252;2023-02-28T04:01:58;-1.10;1.00
37408;DHT22;24866;50.248;8.252;2023-02-28T04:04:28;-0.90;1.00
37408;DHT22;24866;50.248;8.252;2023-02-28T04:07:04;-0.90;1.00
37408;DHT22;24866;50.248;8.252;2023-02-28T04:09:35;-1.00;1.00
37408;DHT22;24866;50.248;8.252;2023-02-28T04:12:06;-1.00;1.00
37408;DHT22;24866;50.248;8.252;2023-02-28T04:14:36;-1.10;1.00
37408;DHT22;24866;50.248;8.252;2023-02-28T04:17:06;-1.00;1.00
37408;DHT22;24866;50.248;8.252;2023-02-28T04:19:36;-1.10;1.00
37408;DHT22;24866;50.248;8.252;2023-02-28T04:22:08;-1.30;1.00
37408;DHT22;24866;50.248;8.252;2023-02-28T04:24:40;-1.50;1.00
37408;DHT22;24866;50.248;8.252;2023-02-28T04:27:11;-1.30;1.00
37408;DHT22;24866;50.248;8.252;2023-02-28T04:29:41;-1.30;1.00
37408;DHT22;24866;50.248;8.252;2023-02-28T04:32:13;-1.20;1.00
37408;DHT22;24866;50.248;8.252;2023-02-28T04:34:43;-1.30;1.00
37408;DHT22;24866;50.248;8.252;2023-02-28T04:37:13;-1.20;1.00
37408;DHT22;24866;50.248;8.252;2023-02-28T04:39:45;-1.20;1.00
37408;DHT22;24866;50.248;8.252;2023-02-28T04:42:15;-1.30;1.00
37408;DHT22;24866;50.248;8.252;2023-02-28T04:44:46;-1.30;1.00
37408;DHT22;24866;50.248;8.252;2023-02-28T04:47:16;-1.60;1.00
37408;DHT22;24866;50.248;8.252;2023-02-28T04:49:46;-1.60;1.00
37408;DHT22;24866;50.248;8.252;2023-02-28T04:52:16;-1.70;1.00
37408;DHT22;24866;50.248;8.252;2023-02-28T04:54:48;-1.70;1.00
37408;DHT22;24866;50.248;8.252;2023-02-28T04:57:18;-1.80;1.00
37408;DHT22;24866;50.248;8.252;2023-02-28T04:59:48;-1.70;1.00
37408;DHT22;24866;50.248;8.252;2023-02-28T05:02:18;-1.90;1.00
37408;DHT22;24866;50.248;8.252;2023-02-28T05:04:49;-2.10;1.00
37408;DHT22;24866;50.248;8.252;2023-02-28T05:07:19;-2.10;1.00
37408;DHT22;24866;50.248;8.252;2023-02-28T05:09:51;-1.90;1.00
37408;DHT22;24866;50.248;8.252;2023-02-28T05:12:21;-2.00;1.00
37408;DHT22;24866;50.248;8.252;2023-02-28T05:14:51;-2.10;1.00
37408;DHT22;24866;50.248;8.252;2023-02-28T05:17:21;-2.30;1.00
37408;DHT22;24866;50.248;8.252;2023-02-28T05:19:52;-2.30;1.00
37408;DHT22;24866;50.248;8.252;2023-02-28T05:22:22;-2.50;99.90
37408;DHT22;24866;50.248;8.252;2023-02-28T05:24:53;-2.40;59.90
37408;DHT22;24866;50.248;8.252;2023-02-28T05:27:23;-2.20;90.40
37408;DHT22;24866;50.248;8.252;2023-02-28T05:29:53;-2.20;60.40
37408;DHT22;24866;50.248;8.252;2023-02-28T05:32:23;-2.20;16.40
37408;DHT22;24866;50.248;8.252;2023-02-28T05:34:53;-2.30;99.90
37408;DHT22;24866;50.248;8.252;2023-02-28T05:37:23;-2.30;85.30
37408;DHT22;24866;50.248;8.252;2023-02-28T05:39:55;-2.10;99.90
37408;DHT22;24866;50.248;8.252;2023-02-28T05:42:25;-2.10;99.90
37408;DHT22;24866;50.248;8.252;2023-02-28T05:44:56;-2.00;99.90
37408;DHT22;24866;50.248;8.252;2023-02-28T05:47:26;-1.90;99.90
37408;DHT22;24866;50.248;8.252;2023-02-28T05:49:56;-1.90;99.90
37408;DHT22;24866;50.248;8.252;2023-02-28T05:52:26;-1.80;99.90
37408;DHT22;24866;50.248;8.252;2023-02-28T05:55:00;-1.70;99.90
37408;DHT22;24866;50.248;8.252;2023-02-28T05:57:31;-1.80;99.90
37408;DHT22;24866;50.248;8.252;2023-02-28T06:00:02;-1.80;99.90
37408;DHT22;24866;50.248;8.252;2023-02-28T06:02:32;-2.00;99.90
37408;DHT22;24866;50.248;8.252;2023-02-28T06:05:02;-2.00;99.90
37408;DHT22;24866;50.248;8.252;2023-02-28T06:07:32;-1.80;99.90
37408;DHT22;24866;50.248;8.252;2023-02-28T06:10:06;-1.80;99.90
37408;DHT22;24866;50.248;8.252;2023-02-28T06:12:37;-1.90;99.90
37408;DHT22;24866;50.248;8.252;2023-02-28T06:15:11;-1.90;99.90
37408;DHT22;24866;50.248;8.252;2023-02-28T06:17:42;-1.90;99.90
37408;DHT22;24866;50.248;8.252;2023-02-28T06:20:12;-1.80;1.00
37408;DHT22;24866;50.248;8.252;2023-02-28T06:22:43;-1.70;1.00
37408;DHT22;24866;50.248;8.252;2023-02-28T06:25:14;-1.70;1.00
37408;DHT22;24866;50.248;8.252;2023-02-28T06:27:44;-1.70;1.00
37408;DHT22;24866;50.248;8.252;2023-02-28T06:30:14;-1.70;1.00
37408;DHT22;24866;50.248;8.252;2023-02-28T06:32:44;-1.60;1.00
37408;DHT22;24866;50.248;8.252;2023-02-28T06:35:17;-1.60;1.00
37408;DHT22;24866;50.248;8.252;2023-02-28T06:37:47;-1.60;1.00
37408;DHT22;24866;50.248;8.252;2023-02-28T06:40:19;-1.60;1.00
37408;DHT22;24866;50.248;8.252;2023-02-28T06:42:49;-1.50;1.00
37408;DHT22;24866;50.248;8.252;2023-02-28T06:45:19;-1.50;1.00
37408;DHT22;24866;50.248;8.252;2023-02-28T06:47:49;-1.50;1.00
37408;DHT22;24866;50.248;8.252;2023-02-28T06:50:20;-1.50;1.00
37408;DHT22;24866;50.248;8.252;2023-02-28T06:52:51;-1.50;1.00
37408;DHT22;24866;50.248;8.252;2023-02-28T06:55:24;-1.50;1.00
37408;DHT22;24866;50.248;8.252;2023-02-28T06:57:55;-1.50;1.00
37408;DHT22;24866;50.248;8.252;2023-02-28T07:00:25;-1.50;1.00
37408;DHT22;24866;50.248;8.252;2023-02-28T07:02:55;-1.40;1.00
37408;DHT22;24866;50.248;8.252;2023-02-28T07:05:26;-1.30;1.00
37408;DHT22;24866;50.248;8.252;2023-02-28T07:07:56;-1.20;1.00
37408;DHT22;24866;50.248;8.252;2023-02-28T07:10:28;-1.10;1.00
37408;DHT22;24866;50.248;8.252;2023-02-28T07:12:58;-1.00;1.00
37408;DHT22;24866;50.248;8.252;2023-02-28T07:15:28;-1.00;1.00
37408;DHT22;24866;50.248;8.252;2023-02-28T07:17:58;-1.00;1.00
37408;DHT22;24866;50.248;8.252;2023-02-28T07:20:29;-0.90;1.00
37408;DHT22;24866;50.248;8.252;2023-02-28T07:22:59;-0.90;1.00
37408;DHT22;24866;50.248;8.252;2023-02-28T07:25:30;-0.80;1.00
37408;DHT22;24866;50.248;8.252;2023-02-28T07:28:00;-0.80;1.00
37408;DHT22;24866;50.248;8.252;2023-02-28T07:30:30;-0.70;1.00
37408;DHT22;24866;50.248;8.252;2023-02-28T07:33:01;-0.60;1.00
37408;DHT22;24866;50.248;8.252;2023-02-28T07:35:31;-0.50;1.00
37408;DHT22;24866;50.248;8.252;2023-02-28T07:38:01;-0.40;1.00
37408;DHT22;24866;50.248;8.252;2023-02-28T07:40:34;-0.30;1.00
37408;DHT22;24866;50.248;8.252;2023-02-28T07:43:04;0.00;1.00
37408;DHT22;24866;50.248;8.252;2023-02-28T07:45:34;0.10;1.00
37408;DHT22;24866;50.248;8.252;2023-02-28T07:48:04;0.20;1.00
37408;DHT22;24866;50.248;8.252;2023-02-28T07:50:34;0.50;1.00
37408;DHT22;24866;50.248;8.252;2023-02-28T07:53:04;0.60;1.00
37408;DHT22;24866;50.248;8.252;2023-02-28T07:55:35;0.60;1.00
37408;DHT22;24866;50.248;8.252;2023-02-28T07:58:05;0.80;1.00
37408;DHT22;24866;50.248;8.252;2023-02-28T08:00:35;0.90;1.00
37408;DHT22;24866;50.248;8.252;2023-02-28T08:03:06;1.00;35.20
37408;DHT22;24866;50.248;8.252;2023-02-28T08:05:38;1.00;68.50
37408;DHT22;24866;50.248;8.252;2023-02-28T08:08:09;1.20;99.90
37408;DHT22;24866;50.248;8.252;2023-02-28T08:10:41;1.50;99.90
37408;DHT22;24866;50.248;8.252;2023-02-28T08:13:11;1.70;99.90
37408;DHT22;24866;50.248;8.252;2023-02-28T08:15:42;1.60;99.90
37408;DHT22;24866;50.248;8.252;2023-02-28T08:18:14;1.60;99.90
37408;DHT22;24866;50.248;8.252;2023-02-28T08:20:44;1.60;99.90
37408;DHT22;24866;50.248;8.252;2023-02-28T08:23:14;1.70;99.90
37408;DHT22;24866;50.248;8.252;2023-02-28T08:25:53;1.70;99.90
37408;DHT22;24866;50.248;8.252;2023-02-28T08:28:24;1.70;99.90
37408;DHT22;24866;50.248;8.252;2023-02-28T08:30:54;1.60;99.90
37408;DHT22;24866;50.248;8.252;2023-02-28T08:33:26;1.70;99.90
37408;DHT22;24866;50.248;8.252;2023-02-28T08:35:56;1.70;99.90
37408;DHT22;24866;50.248;8.252;2023-02-28T08:38:26;1.70;99.90
37408;DHT22;24866;50.248;8.252;2023-02-28T08:41:03;1.80;99.90
37408;DHT22;24866;50.248;8.252;2023-02-28T08:43:34;2.00;99.90
37408;DHT22;24866;50.248;8.252;2023-02-28T08:46:05;1.90;99.90
37408;DHT22;24866;50.248;8.252;2023-02-28T08:48:35;2.20;99.90
37408;DHT22;24866;50.248;8.252;2023-02-28T08:51:08;2.30;99.90
37408;DHT22;24866;50.248;8.252;2023-02-28T08:53:39;2.50;1.00
37408;DHT22;24866;50.248;8.252;2023-02-28T08:56:12;2.30;1.00
37408;DHT22;24866;50.248;8.252;2023-02-28T08:58:43;2.30;1.00
37408;DHT22;24866;50.248;8.252;2023-02-28T09:01:14;2.30;1.00
37408;DHT22;24866;50.248;8.252;2023-02-28T09:03:46;2.60;1.00
37408;DHT22;24866;50.248;8.252;2023-02-28T09:06:18;2.80;1.00
37408;DHT22;24866;50.248;8.252;2023-02-28T09:08:48;2.60;1.00
37408;DHT22;24866;50.248;8.252;2023-02-28T09:11:20;2.90;1.00
37408;DHT22;24866;50.248;8.252;2023-02-28T09:13:50;2.80;1.00
37408;DHT22;24866;50.248;8.252;2023-02-28T09:16:20;3.00;1.00
37408;DHT22;24866;50.248;8.252;2023-02-28T09:18:50;3.30;1.00
37408;DHT22;24866;50.248;8.252;2023-02-28T09:21:20;3.30;1.00
37408;DHT22;24866;50.248;8.252;2023-02-28T09:23:50;3.30;1.00
37408;DHT22;24866;50.248;8.252;2023-02-28T09:26:24;3.40;1.00
37408;DHT22;24866;50.248;8.252;2023-02-28T09:28:55;3.30;1.00
37408;DHT22;24866;50.248;8.252;2023-02-28T09:31:28;3.50;1.00
37408;DHT22;24866;50.248;8.252;2023-02-28T09:33:58;3.50;1.00
37408;DHT22;24866;50.248;8.252;2023-02-28T09:36:29;3.90;1.00
37408;DHT22;24866;50.248;8.252;2023-02-28T09:38:59;4.00;1.00
37408;DHT22;24866;50.248;8.252;2023-02-28T09:41:37;4.00;1.00
37408;DHT22;24866;50.248;8.252;2023-02-28T09:44:21;3.60;1.00
37408;DHT22;24866;50.248;8.252;2023-02-28T09:46:55;3.60;1.00
37408;DHT22;24866;50.248;8.252;2023-02-28T09:49:34;3.30;1.00
37408;DHT22;24866;50.248;8.252;2023-02-28T09:52:12;3.50;1.00
37408;DHT22;24866;50.248;8.252;2023-02-28T09:54:44;3.70;1.00
37408;DHT22;24866;50.248;8.252;2023-02-28T09:57:21;3.80;1.00
37408;DHT22;24866;50.248;8.252;2023-02-28T10:00:05;3.60;1.00
37408;DHT22;24866;50.248;8.252;2023-02-28T10:02:58;3.50;1.00
37408;DHT22;24866;50.248;8.252;2023-02-28T10:05:34;3.80;1.00
37408;DHT22;24866;50.248;8.252;2023-02-28T10:08:13;4.00;1.00
37408;DHT22;24866;50.248;8.252;2023-02-28T10:10:45;4.20;1.00
37408;DHT22;24866;50.248;8.252;2023-02-28T10:13:23;4.70;1.00
37408;DHT22;24866;50.248;8.252;2023-02-28T10:15:58;4.90;1.00
37408;DHT22;24866;50.248;8.252;2023-02-28T10:18:34;5.00;1.00
37408;DHT22;24866;50.248;8.252;2023-02-28T10:21:17;4.80;1.00
37408;DHT22;24866;50.248;8.252;2023-02-28T10:23:49;5.20;1.00
37408;DHT22;24866;50.248;8.252;2023-02-28T10:26:27;5.40;1.00
37408;DHT22;24866;50.248;8.252;2023-02-28T10:29:02;5.40;1.00
37408;DHT22;24866;50.248;8.252;2023-02-28T10:31:35;5.20;1.00
37408;DHT22;24866;50.248;8.252;2023-02-28T10:34:07;5.20;1.00
37408;DHT22;24866;50.248;8.252;2023-02-28T10:36:39;5.50;1.00
37408;DHT22;24866;50.248;8.252;2023-02-28T10:39:38;5.80;1.00
37408;DHT22;24866;50.248;8.252;2023-02-28T10:42:24;5.20;1.00
37408;DHT22;24866;50.248;8.252;2023-02-28T10:45:11;4.80;1.00
37408;DHT22;24866;50.248;8.252;2023-02-28T10:47:52;4.90;1.00
37408;DHT22;24866;50.248;8.252;2023-02-28T10:50:39;4.70;1.00
37408;DHT22;24866;50.248;8.252;2023-02-28T10:53:22;4.30;99.90
37408;DHT22;24866;50.248;8.252;2023-02-28T10:55:59;4.60;99.90
37408;DHT22;24866;50.248;8.252;2023-02-28T10:58:44;4.50;99.90
37408;DHT22;24866;50.248;8.252;2023-02-28T11:01:19;4.40;99.90
37408;DHT22;24866;50.248;8.252;2023-02-28T11:03:51;4.90;99.90
37408;DHT22;24866;50.248;8.252;2023-02-28T11:06:23;5.10;99.90
37408;DHT22;24866;50.248;8.252;2023-02-28T11:08:56;5.50;1.00
37408;DHT22;24866;50.248;8.252;2023-02-28T11:11:29;5.80;1.00
37408;DHT22;24866;50.248;8.252;2023-02-28T11:14:04;6.10;1.00
37408;DHT22;24866;50.248;8.252;2023-02-28T11:16:38;6.20;1.00
37408;DHT22;24866;50.248;8.252;2023-02-28T11:19:19;6.40;1.00
37408;DHT22;24866;50.248;8.252;2023-02-28T11:21:54;6.60;1.00
37408;DHT22;24866;50.248;8.252;2023-02-28T11:24:27;6.40;1.00
37408;DHT22;24866;50.248;8.252;2023-02-28T11:26:58;5.90;99.90
37408;DHT22;24866;50.248;8.252;2023-02-28T11:29:29;5.30;99.90
37408;DHT22;24866;50.248;8.252;2023-02-28T11:32:05;5.40;99.90
37408;DHT22;24866;50.248;8.252;2023-02-28T11:34:38;5.00;99.90
37408;DHT22;24866;50.248;8.252;2023-02-28T11:37:12;4.80;99.90
37408;DHT22;24866;50.248;8.252;2023-02-28T11:39:43;4.90;99.90
37408;DHT22;24866;50.248;8.252;2023-02-28T11:42:46;5.00;99.90
37408;DHT22;24866;50.248;8.252;2023-02-28T11:45:28;5.00;99.90
37408;DHT22;24866;50.248;8.252;2023-02-28T11:48:04;5.20;99.90
37408;DHT22;24866;50.248;8.252;2023-02-28T11:50:47;5.40;99.90
37408;DHT22;24866;50.248;8.252;2023-02-28T11:53:35;5.40;99.90
37408;DHT22;24866;50.248;8.252;2023-02-28T11:56:12;5.20;99.90
37408;DHT22;24866;50.248;8.252;2023-02-28T11:58:53;4.80;38.10
37408;DHT22;24866;50.248;8.252;2023-02-28T12:01:44;4.80;10.30
37408;DHT22;24866;50.248;8.252;2023-02-28T12:04:34;5.20;72.30
37408;DHT22;24866;50.248;8.252;2023-02-28T12:07:16;4.90;7.10
37408;DHT22;24866;50.248;8.252;2023-02-28T12:09:56;5.30;53.40
37408;DHT22;24866;50.248;8.252;2023-02-28T12:12:37;5.80;99.90
37408;DHT22;24866;50.248;8.252;2023-02-28T12:15:28;6.10;99.90
37408;DHT22;24866;50.248;8.252;2023-02-28T12:18:11;5.80;91.10
37408;DHT22;24866;50.248;8.252;2023-02-28T12:20:49;6.00;99.90
37408;DHT22;24866;50.248;8.252;2023-02-28T12:23:38;6.10;99.90
37408;DHT22;24866;50.248;8.252;2023-02-28T12:26:14;6.00;65.30
37408;DHT22;24866;50.248;8.252;2023-02-28T12:28:49;5.60;1.00
37408;DHT22;24866;50.248;8.252;2023-02-28T12:31:23;5.60;1.00
37408;DHT22;24866;50.248;8.252;2023-02-28T12:33:59;5.60;1.00
37408;DHT22;24866;50.248;8.252;2023-02-28T12:36:34;5.60;1.00
37408;DHT22;24866;50.248;8.252;2023-02-28T12:39:10;5.70;1.00
37408;DHT22;24866;50.248;8.252;2023-02-28T12:41:44;5.70;1.00
37408;DHT22;24866;50.248;8.252;2023-02-28T12:44:18;6.30;1.00
37408;DHT22;24866;50.248;8.252;2023-02-28T12:46:51;6.20;1.00
37408;DHT22;24866;50.248;8.252;2023-02-28T12:49:26;6.30;1.00
37408;DHT22;24866;50.248;8.252;2023-02-28T12:52:02;6.20;1.00
37408;DHT22;24866;50.248;8.252;2023-02-28T12:54:38;6.10;1.00
37408;DHT22;24866;50.248;8.252;2023-02-28T12:57:17;6.50;1.00
37408;DHT22;24866;50.248;8.252;2023-02-28T12:59:51;6.30;1.00
37408;DHT22;24866;50.248;8.252;2023-02-28T13:02:41;6.30;1.00
37408;DHT22;24866;50.248;8.252;2023-02-28T13:05:36;6.30;1.00
37408;DHT22;24866;50.248;8.252;2023-02-28T13:08:24;6.30;1.00
37408;DHT22;24866;50.248;8.252;2023-02-28T13:10:59;6.90;1.00
37408;DHT22;24866;50.248;8.252;2023-02-28T13:13:30;6.80;1.00
37408;DHT22;24866;50.248;8.252;2023-02-28T13:16:06;6.90;1.00
37408;DHT22;24866;50.248;8.252;2023-02-28T13:18:38;6.60;1.00
37408;DHT22;24866;50.248;8.252;2023-02-28T13:21:21;6.50;1.00
37408;DHT22;24866;50.248;8.252;2023-02-28T13:24:00;6.30;1.00
37408;DHT22;24866;50.248;8.252;2023-02-28T13:29:37;6.30;1.00
37408;DHT22;24866;50.248;8.252;2023-02-28T13:32:42;6.40;1.00
37408;DHT22;24866;50.248;8.252;2023-02-28T13:35:12;6.50;1.00
37408;DHT22;24866;50.248;8.252;2023-02-28T13:37:44;6.50;1.00
37408;DHT22;24866;50.248;8.252;2023-02-28T13:40:32;6.40;1.00
37408;DHT22;24866;50.248;8.252;2023-02-28T13:43:08;7.00;1.00
37408;DHT22;24866;50.248;8.252;2023-02-28T13:45:39;7.20;1.00
37408;DHT22;24866;50.248;8.252;2023-02-28T13:48:29;7.40;1.00
37408;DHT22;24866;50.248;8.252;2023-02-28T13:50:59;6.80;1.00
37408;DHT22;24866;50.248;8.252;2023-02-28T13:53:55;6.70;1.00
37408;DHT22;24866;50.248;8.252;2023-02-28T13:56:42;6.40;1.00
37408;DHT22;24866;50.248;8.252;2023-02-28T13:59:22;6.70;1.00
37408;DHT22;24866;50.248;8.252;2023-02-28T14:02:03;6.70;1.00
37408;DHT22;24866;50.248;8.252;2023-02-28T14:04:57;7.10;1.00
37408;DHT22;24866;50.248;8.252;2023-02-28T14:07:32;7.40;1.00
37408;DHT22;24866;50.248;8.252;2023-02-28T14:10:05;7.30;1.00
37408;DHT22;24866;50.248;8.252;2023-02-28T14:13:01;7.00;1.00
37408;DHT22;24866;50.248;8.252;2023-02-28T14:15:56;6.70;1.00
37408;DHT22;24866;50.248;8.252;2023-02-28T14:18:30;6.40;1.00
37408;DHT22;24866;50.248;8.252;2023-02-28T14:21:10;6.10;99.90
37408;DHT22;24866;50.248;8.252;2023-02-28T14:24:09;6.00;99.90
37408;DHT22;24866;50.248;8.252;2023-02-28T14:27:06;6.10;99.90
37408;DHT22;24866;50.248;8.252;2023-02-28T14:32:47;6.50;1.00
37408;DHT22;24866;50.248;8.252;2023-02-28T14:35:48;6.70;1.00
37408;DHT22;24866;50.248;8.252;2023-02-28T14:38:24;6.30;99.90
37408;DHT22;24866;50.248;8.252;2023-02-28T14:40:57;6.50;99.90
37408;DHT22;24866;50.248;8.252;2023-02-28T14:43:28;6.70;1.00
37408;DHT22;24866;50.248;8.252;2023-02-28T14:46:02;7.00;1.00
37408;DHT22;24866;50.248;8.252;2023-02-28T14:48:33;6.50;99.90
37408;DHT22;24866;50.248;8.252;2023-02-28T14:51:04;6.40;99.90
37408;DHT22;24866;50.248;8.252;2023-02-28T14:53:36;6.20;99.90
37408;DHT22;24866;50.248;8.252;2023-02-28T14:56:19;6.70;99.90
37408;DHT22;24866;50.248;8.252;2023-02-28T14:58:52;6.50;99.90
37408;DHT22;24866;50.248;8.252;2023-02-28T15:01:25;6.50;99.90
37408;DHT22;24866;50.248;8.252;2023-02-28T15:04:03;5.70;99.90
37408;DHT22;24866;50.248;8.252;2023-02-28T15:06:34;5.90;99.90
37408;DHT22;24866;50.248;8.252;2023-02-28T15:09:15;6.30;99.90
37408;DHT22;24866;50.248;8.252;2023-02-28T15:11:48;6.50;99.90
37408;DHT22;24866;50.248;8.252;2023-02-28T15:14:21;5.70;99.90
37408;DHT22;24866;50.248;8.252;2023-02-28T15:16:58;5.70;99.90
37408;DHT22;24866;50.248;8.252;2023-02-28T15:19:31;5.80;99.90
37408;DHT22;24866;50.248;8.252;2023-02-28T15:22:05;5.40;99.90
37408;DHT22;24866;50.248;8.252;2023-02-28T15:24:38;5.40;99.90
37408;DHT22;24866;50.248;8.252;2023-02-28T15:27:12;5.30;99.90
37408;DHT22;24866;50.248;8.252;2023-02-28T15:29:46;5.80;99.90
37408;DHT22;24866;50.248;8.252;2023-02-28T15:32:29;5.70;99.90
37408;DHT22;24866;50.248;8.252;2023-02-28T15:35:18;5.30;99.90
37408;DHT22;24866;50.248;8.252;2023-02-28T15:37:54;5.60;99.90
37408;DHT22;24866;50.248;8.252;2023-02-28T15:40:28;5.70;99.90
37408;DHT22;24866;50.248;8.252;2023-02-28T15:43:04;5.90;99.90
37408;DHT22;24866;50.248;8.252;2023-02-28T15:45:37;6.10;99.90
37408;DHT22;24866;50.248;8.252;2023-02-28T15:48:23;5.90;99.90
37408;DHT22;24866;50.248;8.252;2023-02-28T15:50:55;5.80;99.90
37408;DHT22;24866;50.248;8.252;2023-02-28T15:53:30;5.70;97.20
37408;DHT22;24866;50.248;8.252;2023-02-28T15:56:04;5.70;99.90
37408;DHT22;24866;50.248;8.252;2023-02-28T15:58:36;5.50;58.00
37408;DHT22;24866;50.248;8.252;2023-02-28T16:01:17;5.50;41.70
37408;DHT22;24866;50.248;8.252;2023-02-28T16:03:51;5.30;17.30
37408;DHT22;24866;50.248;8.252;2023-02-28T16:06:38;4.90;1.00
37408;DHT22;24866;50.248;8.252;2023-02-28T16:09:12;4.80;1.00
37408;DHT22;24866;50.248;8.252;2023-02-28T16:11:45;4.80;1.00
37408;DHT22;24866;50.248;8.252;2023-02-28T16:14:18;4.60;1.00
37408;DHT22;24866;50.248;8.252;2023-02-28T16:16:49;4.70;1.00
37408;DHT22;24866;50.248;8.252;2023-02-28T16:19:22;4.80;1.00
37408;DHT22;24866;50.248;8.252;2023-02-28T16:21:52;5.00;1.00
37408;DHT22;24866;50.248;8.252;2023-02-28T16:24:22;5.00;1.00
37408;DHT22;24866;50.248;8.252;2023-02-28T16:26:54;4.90;1.00
37408;DHT22;24866;50.248;8.252;2023-02-28T16:29:27;4.70;1.00
37408;DHT22;24866;50.248;8.252;2023-02-28T16:31:58;4.70;1.00
37408;DHT22;24866;50.248;8.252;2023-02-28T16:34:30;4.60;1.00
37408;DHT22;24866;50.248;8.252;2023-02-28T16:37:01;4.60;1.00
37408;DHT22;24866;50.248;8.252;2023-02-28T16:39:31;4.50;1.00
37408;DHT22;24866;50.248;8.252;2023-02-28T16:42:01;4.40;1.00
37408;DHT22;24866;50.248;8.252;2023-02-28T16:44:33;4.30;1.00
37408;DHT22;24866;50.248;8.252;2023-02-28T16:47:04;4.20;1.00